createdAt,value
2023-02-16T00:02:33.681Z,24.00
2023-02-16T00:05:30.605Z,26.48
2023-02-16T00:08:16.331Z,25.80
2023-02-16T00:11:20.442Z,26.10
2023-02-16T00:14:10.116Z,27.10
2023-02-16T00:16:58.561Z,27.23
2023-02-16T00:19:44.267Z,23.83
2023-02-16T00:22:30.106Z,24.38
2023-02-16T00:25:15.783Z,22.25
2023-02-16T00:28:04.585Z,22.90
2023-02-16T00:30:50.652Z,21.52
2023-02-16T00:33:36.205Z,23.40
2023-02-16T00:36:21.757Z,25.17
2023-02-16T00:39:07.614Z,22.13
2023-02-16T00:42:00.269Z,24.75
2023-02-16T00:47:39.854Z,22.35
2023-02-16T00:50:32.125Z,25.27
2023-02-16T00:53:18.126Z,20.65
2023-02-16T00:56:03.665Z,18.45
2023-02-16T00:58:52.646Z,20.10
2023-02-16T01:01:38.406Z,24.02
2023-02-16T01:04:24.118Z,24.70
2023-02-16T01:07:33.276Z,22.77
2023-02-16T01:10:37.685Z,20.77
2023-02-16T01:13:24.859Z,19.42
2023-02-16T01:16:22.500Z,18.42
2023-02-16T01:19:08.326Z,18.63
2023-02-16T01:21:54.219Z,19.60
2023-02-16T01:24:39.674Z,20.92
2023-02-16T01:27:25.130Z,19.92
2023-02-16T01:30:17.776Z,20.70
2023-02-16T01:33:03.485Z,19.50
2023-02-16T01:35:51.049Z,19.75
2023-02-16T01:38:36.553Z,24.23
2023-02-16T01:41:43.117Z,23.05
2023-02-16T01:44:43.965Z,20.92
2023-02-16T01:47:44.483Z,22.42
2023-02-16T01:50:43.225Z,22.83
2023-02-16T01:53:49.488Z,20.50
2023-02-16T01:59:49.774Z,16.23
2023-02-16T02:02:41.015Z,16.80
2023-02-16T02:05:36.939Z,17.45
2023-02-16T02:08:36.767Z,18.27
2023-02-16T02:11:30.714Z,19.02
2023-02-16T02:14:25.615Z,18.92
2023-02-16T02:17:18.457Z,16.58
2023-02-16T02:20:49.236Z,15.90
2023-02-16T02:23:41.072Z,15.55
2023-02-16T02:27:06.033Z,15.95
2023-02-16T02:30:03.335Z,13.98
2023-02-16T02:33:03.826Z,14.07
2023-02-16T02:36:12.515Z,13.57
2023-02-16T02:39:20.120Z,14.45
2023-02-16T02:42:37.855Z,11.70
2023-02-16T02:45:31.991Z,11.73
2023-02-16T02:48:18.124Z,12.77
2023-02-16T02:51:28.743Z,11.23
2023-02-16T02:54:42.574Z,10.38
2023-02-16T02:58:04.956Z,11.20
2023-02-16T03:00:53.419Z,12.38
2023-02-16T03:03:55.789Z,11.05
2023-02-16T03:06:47.129Z,12.30
2023-02-16T03:09:32.899Z,13.80
2023-02-16T03:12:37.388Z,13.43
2023-02-16T03:15:25.016Z,12.77
2023-02-16T03:18:31.226Z,14.43
2023-02-16T03:21:35.221Z,15.05
2023-02-16T03:24:50.097Z,14.32
2023-02-16T03:27:58.234Z,14.38
2023-02-16T03:30:46.113Z,15.48
2023-02-16T03:33:32.147Z,14.20
2023-02-16T03:36:17.592Z,13.30
2023-02-16T03:39:05.516Z,11.70
2023-02-16T03:41:54.428Z,12.98
2023-02-16T03:44:39.978Z,14.55
2023-02-16T03:47:25.689Z,14.55
2023-02-16T03:50:11.050Z,13.70
2023-02-16T03:53:06.874Z,16.65
2023-02-16T03:55:52.631Z,13.93
2023-02-16T03:58:38.229Z,14.23
2023-02-16T04:01:23.810Z,15.25
2023-02-16T04:04:09.318Z,14.85
2023-02-16T04:06:54.569Z,15.52
2023-02-16T04:09:39.980Z,13.95
2023-02-16T04:12:37.454Z,15.50
2023-02-16T04:15:26.443Z,15.68
2023-02-16T04:18:12.387Z,18.10
2023-02-16T04:20:57.832Z,22.05
2023-02-16T04:23:43.126Z,67.28
2023-02-16T04:26:29.026Z,66.20
2023-02-16T04:29:14.522Z,51.25
2023-02-16T04:32:01.304Z,41.17
2023-02-16T04:34:46.620Z,35.65
2023-02-16T04:37:32.052Z,22.92
2023-02-16T04:40:18.051Z,12.40
2023-02-16T04:43:03.643Z,10.88
2023-02-16T04:45:49.680Z,11.98
2023-02-16T04:48:34.952Z,11.65
2023-02-16T04:51:20.581Z,11.38
2023-02-16T04:54:09.185Z,10.05
2023-02-16T04:56:54.525Z,10.25
2023-02-16T04:59:40.018Z,10.93
2023-02-16T05:02:25.575Z,9.80
2023-02-16T05:05:11.248Z,9.75
2023-02-16T05:07:56.451Z,10.27
2023-02-16T05:10:42.752Z,11.13
2023-02-16T05:13:47.189Z,11.95
2023-02-16T05:16:32.685Z,12.02
2023-02-16T05:19:18.022Z,12.05
2023-02-16T05:22:04.058Z,11.75
2023-02-16T05:24:50.061Z,11.60
2023-02-16T05:27:35.792Z,14.90
2023-02-16T05:30:21.143Z,17.15
2023-02-16T05:33:06.652Z,20.38
2023-02-16T05:35:52.361Z,24.83
2023-02-16T05:38:38.198Z,22.58
2023-02-16T05:41:23.627Z,18.88
2023-02-16T05:44:09.693Z,18.98
2023-02-16T05:46:55.135Z,19.73
2023-02-16T05:49:40.680Z,20.20
2023-02-16T05:52:26.197Z,18.90
2023-02-16T05:55:12.556Z,18.40
2023-02-16T05:57:58.066Z,19.92
2023-02-16T06:00:43.694Z,51.30
2023-02-16T06:03:29.182Z,32.75
2023-02-16T06:06:15.339Z,23.55
2023-02-16T06:09:01.668Z,18.45
2023-02-16T06:11:47.175Z,17.40
2023-02-16T06:14:32.893Z,16.60
2023-02-16T06:17:18.233Z,15.68
2023-02-16T06:20:05.368Z,13.80
2023-02-16T06:22:50.815Z,14.32
2023-02-16T06:25:36.194Z,16.75
2023-02-16T06:28:21.620Z,17.10
2023-02-16T06:31:07.787Z,18.75
2023-02-16T06:33:54.083Z,16.17
2023-02-16T06:36:42.423Z,16.08
2023-02-16T06:39:28.664Z,15.27
2023-02-16T06:42:14.456Z,18.15
2023-02-16T06:45:00.523Z,18.08
2023-02-16T06:47:45.969Z,16.17
2023-02-16T06:50:31.426Z,18.80
2023-02-16T06:53:18.886Z,20.73
2023-02-16T06:56:05.492Z,17.58
2023-02-16T06:58:50.870Z,16.95
2023-02-16T07:01:36.834Z,17.58
2023-02-16T07:04:22.541Z,16.83
2023-02-16T07:07:08.813Z,17.75
2023-02-16T07:09:54.577Z,16.88
2023-02-16T07:12:41.427Z,17.63
2023-02-16T07:15:30.073Z,16.02
2023-02-16T07:18:15.654Z,16.33
2023-02-16T07:21:01.160Z,16.10
2023-02-16T07:23:47.257Z,16.25
2023-02-16T07:26:33.333Z,18.23
2023-02-16T07:29:19.497Z,16.33
2023-02-16T07:32:05.734Z,15.55
2023-02-16T07:34:55.089Z,15.07
2023-02-16T07:37:42.262Z,16.63
2023-02-16T07:40:29.264Z,15.00
2023-02-16T07:43:14.634Z,14.27
2023-02-16T07:46:02.030Z,13.68
2023-02-16T07:48:49.164Z,12.35
2023-02-16T07:51:36.937Z,13.35
2023-02-16T07:54:23.508Z,13.38
2023-02-16T07:57:09.730Z,12.23
2023-02-16T07:59:55.962Z,11.63
2023-02-16T08:02:45.375Z,10.43
2023-02-16T08:05:41.190Z,11.93
2023-02-16T08:08:27.514Z,10.68
2023-02-16T08:11:19.164Z,11.10
2023-02-16T08:14:04.554Z,12.20
2023-02-16T08:16:53.598Z,11.18
2023-02-16T08:19:41.274Z,10.25
2023-02-16T08:22:27.731Z,15.25
2023-02-16T08:25:15.969Z,14.82
2023-02-16T08:28:02.490Z,24.65
2023-02-16T08:30:48.258Z,12.02
2023-02-16T08:33:35.389Z,16.42
2023-02-16T08:36:29.368Z,14.30
2023-02-16T08:39:17.569Z,13.15
2023-02-16T08:42:03.847Z,11.93
2023-02-16T08:44:49.239Z,10.95
2023-02-16T08:47:36.491Z,10.02
2023-02-16T08:50:22.554Z,10.25
2023-02-16T08:53:08.116Z,10.02
2023-02-16T08:55:58.029Z,11.32
2023-02-16T08:58:43.780Z,10.27
2023-02-16T09:01:29.107Z,10.85
2023-02-16T09:04:16.099Z,11.35
2023-02-16T09:07:01.741Z,11.00
2023-02-16T09:09:48.263Z,11.73
2023-02-16T09:12:35.469Z,11.32
2023-02-16T09:15:22.361Z,10.23
2023-02-16T09:18:10.779Z,14.45
2023-02-16T09:20:57.295Z,11.50
2023-02-16T09:23:47.422Z,11.57
2023-02-16T09:26:52.011Z,12.23
2023-02-16T09:29:38.697Z,10.85
2023-02-16T09:32:28.983Z,10.35
2023-02-16T09:35:15.827Z,10.60
2023-02-16T09:38:02.447Z,10.23
2023-02-16T09:40:48.067Z,11.43
2023-02-16T09:43:45.423Z,11.63
2023-02-16T09:46:34.335Z,11.32
2023-02-16T09:49:33.078Z,10.35
2023-02-16T09:52:35.314Z,11.15
2023-02-16T09:55:24.826Z,11.45
2023-02-16T09:58:22.155Z,13.40
2023-02-16T10:01:24.378Z,10.40
2023-02-16T10:04:31.767Z,9.98
2023-02-16T10:07:40.964Z,10.82
2023-02-16T10:10:46.962Z,12.43
2023-02-16T10:13:47.084Z,10.55
2023-02-16T10:16:42.785Z,12.30
2023-02-16T10:19:38.301Z,10.82
2023-02-16T10:22:32.769Z,9.48
2023-02-16T10:25:18.764Z,20.02
2023-02-16T10:28:32.537Z,30.45
2023-02-16T10:31:39.964Z,21.05
2023-02-16T10:34:44.725Z,21.52
2023-02-16T10:38:00.375Z,16.73
2023-02-16T10:40:57.865Z,13.07
2023-02-16T10:44:16.379Z,9.50
2023-02-16T10:47:06.530Z,8.45
2023-02-16T10:49:52.669Z,8.55
2023-02-16T10:52:42.037Z,9.73
2023-02-16T10:55:28.684Z,9.20
2023-02-16T10:58:22.721Z,9.13
2023-02-16T11:01:19.031Z,9.90
2023-02-16T11:04:05.295Z,9.55
2023-02-16T11:07:08.457Z,9.05
2023-02-16T11:09:57.284Z,9.30
2023-02-16T11:12:42.503Z,10.63
2023-02-16T11:15:29.186Z,9.23
2023-02-16T11:18:37.867Z,9.95
2023-02-16T11:21:47.372Z,10.15
2023-02-16T11:24:35.726Z,9.90
2023-02-16T11:27:24.164Z,9.27
2023-02-16T11:30:23.025Z,10.35
2023-02-16T11:33:27.153Z,10.63
2023-02-16T11:36:21.994Z,10.23
2023-02-16T11:39:23.592Z,10.77
2023-02-16T11:42:19.758Z,10.47
2023-02-16T11:45:07.354Z,10.13
2023-02-16T11:48:02.773Z,10.15
2023-02-16T11:51:03.993Z,10.60
2023-02-16T11:54:01.250Z,10.00
2023-02-16T11:57:09.536Z,10.68
2023-02-16T11:59:57.068Z,10.88
2023-02-16T12:02:42.870Z,9.30
2023-02-16T12:05:43.708Z,10.73
2023-02-16T12:08:55.138Z,10.52
2023-02-16T12:11:48.077Z,11.57
2023-02-16T12:14:39.699Z,11.32
2023-02-16T12:17:34.931Z,10.85
2023-02-16T12:20:36.578Z,11.00
2023-02-16T12:23:53.535Z,9.93
2023-02-16T12:26:53.082Z,7.70
2023-02-16T12:30:00.457Z,6.47
2023-02-16T12:33:27.038Z,6.82
2023-02-16T12:36:32.837Z,6.40
2023-02-16T12:39:45.867Z,7.20
2023-02-16T12:43:05.631Z,7.45
2023-02-16T12:45:51.286Z,6.97
2023-02-16T12:48:45.279Z,7.32
2023-02-16T12:51:37.337Z,7.45
2023-02-16T12:54:49.575Z,6.57
2023-02-16T12:57:36.371Z,7.15
2023-02-16T13:00:25.345Z,6.97
2023-02-16T13:03:46.525Z,8.63
2023-02-16T13:07:06.230Z,7.45
2023-02-16T13:09:57.447Z,7.78
2023-02-16T13:13:14.586Z,9.38
2023-02-16T13:16:17.483Z,7.03
2023-02-16T13:19:05.913Z,7.07
2023-02-16T13:22:06.643Z,7.15
2023-02-16T13:25:21.997Z,16.70
2023-02-16T13:28:33.490Z,8.80
2023-02-16T13:31:48.997Z,7.15
2023-02-16T13:34:47.915Z,7.35
2023-02-16T13:38:02.803Z,6.60
2023-02-16T13:41:17.284Z,6.70
2023-02-16T13:44:22.748Z,6.75
2023-02-16T13:47:16.750Z,5.90
2023-02-16T13:50:08.988Z,5.47
2023-02-16T13:52:57.642Z,6.53
2023-02-16T13:55:43.418Z,6.22
2023-02-16T13:58:31.489Z,5.90
2023-02-16T14:01:32.193Z,7.15
2023-02-16T14:04:23.691Z,6.68
2023-02-16T14:07:18.494Z,6.32
2023-02-16T14:10:04.807Z,6.63
2023-02-16T14:12:52.286Z,6.63
2023-02-16T14:15:51.852Z,7.13
2023-02-16T14:18:43.626Z,6.55
2023-02-16T14:21:38.088Z,7.13
2023-02-16T14:24:35.761Z,9.05
2023-02-16T14:27:42.671Z,8.10
2023-02-16T14:30:43.905Z,7.15
2023-02-16T14:33:58.291Z,7.78
2023-02-16T14:37:27.717Z,7.93
2023-02-16T14:40:17.237Z,8.45
2023-02-16T14:43:46.227Z,8.65
2023-02-16T14:47:03.263Z,7.85
2023-02-16T14:50:17.426Z,8.07
2023-02-16T14:53:20.763Z,8.43
2023-02-16T14:56:37.718Z,7.45
2023-02-16T14:59:55.781Z,7.45
2023-02-16T15:02:54.992Z,7.03
2023-02-16T15:05:41.991Z,9.07
2023-02-16T15:08:36.473Z,9.35
2023-02-16T15:11:32.729Z,10.63
2023-02-16T15:14:18.391Z,7.95
2023-02-16T15:17:07.523Z,14.77
2023-02-16T15:19:55.077Z,11.80
2023-02-16T15:22:49.169Z,10.68
2023-02-16T15:25:40.082Z,10.73
2023-02-16T15:28:37.433Z,13.05
2023-02-16T15:31:31.820Z,14.38
2023-02-16T15:34:34.641Z,16.98
2023-02-16T15:40:26.332Z,15.48
2023-02-16T15:43:30.885Z,10.52
2023-02-16T15:46:34.830Z,10.30
2023-02-16T15:49:30.379Z,10.98
2023-02-16T15:52:19.511Z,11.77
2023-02-16T15:55:06.946Z,14.23
2023-02-16T15:57:53.810Z,19.63
2023-02-16T16:00:42.347Z,16.02
2023-02-16T16:03:30.855Z,13.85
2023-02-16T16:06:25.597Z,12.20
2023-02-16T16:09:32.804Z,12.68
2023-02-16T16:12:20.992Z,12.85
2023-02-16T16:15:06.996Z,12.80
2023-02-16T16:17:53.917Z,10.70
2023-02-16T16:20:44.123Z,21.70
2023-02-16T16:23:30.071Z,16.35
2023-02-16T16:26:20.884Z,42.05
2023-02-16T16:29:33.958Z,18.25
2023-02-16T16:32:23.759Z,13.27
2023-02-16T16:35:22.898Z,47.30
2023-02-16T16:38:27.638Z,32.85
2023-02-16T16:41:28.374Z,19.08
2023-02-16T16:44:30.670Z,14.00
2023-02-16T16:47:19.226Z,11.80
2023-02-16T16:50:11.130Z,13.90
2023-02-16T16:52:58.057Z,13.65
2023-02-16T16:55:44.141Z,15.68
2023-02-16T16:58:30.097Z,13.52
2023-02-16T17:01:16.110Z,11.45
2023-02-16T17:04:01.275Z,11.95
2023-02-16T17:06:46.738Z,14.13
2023-02-16T17:09:32.021Z,16.60
2023-02-16T17:12:17.918Z,11.90
2023-02-16T17:15:05.990Z,10.88
2023-02-16T17:17:51.196Z,15.23
2023-02-16T17:20:36.506Z,11.63
2023-02-16T17:23:23.174Z,15.10
2023-02-16T17:26:10.264Z,11.65
2023-02-16T17:28:56.776Z,9.65
2023-02-16T17:31:42.544Z,12.30
2023-02-16T17:34:31.800Z,10.93
2023-02-16T17:37:19.552Z,10.50
2023-02-16T17:40:15.041Z,9.75
2023-02-16T17:43:00.408Z,11.50
2023-02-16T17:45:47.038Z,9.85
2023-02-16T17:48:33.223Z,11.25
2023-02-16T17:51:20.663Z,9.55
2023-02-16T17:54:10.409Z,10.60
2023-02-16T17:56:55.838Z,9.88
2023-02-16T17:59:42.145Z,10.07
2023-02-16T18:02:27.927Z,9.88
2023-02-16T18:05:13.514Z,11.52
2023-02-16T18:07:59.983Z,10.98
2023-02-16T18:10:47.364Z,11.02
2023-02-16T18:13:33.319Z,10.85
2023-02-16T18:16:21.721Z,10.43
2023-02-16T18:19:10.018Z,10.63
2023-02-16T18:21:55.834Z,9.35
2023-02-16T18:24:44.554Z,9.88
2023-02-16T18:27:30.474Z,9.77
2023-02-16T18:30:17.424Z,10.50
2023-02-16T18:33:02.772Z,10.38
2023-02-16T18:35:50.987Z,10.43
2023-02-16T18:38:36.317Z,10.63
2023-02-16T18:41:22.067Z,11.38
2023-02-16T18:44:07.650Z,11.07
2023-02-16T18:46:52.943Z,10.40
2023-02-16T18:49:38.947Z,10.38
2023-02-16T18:52:25.019Z,10.55
2023-02-16T18:55:12.076Z,10.32
2023-02-16T18:57:57.558Z,9.75
2023-02-16T19:00:43.422Z,10.73
2023-02-16T19:03:30.252Z,11.43
2023-02-16T19:06:16.043Z,11.80
2023-02-16T19:09:01.477Z,12.75
2023-02-16T19:11:47.299Z,16.55
2023-02-16T19:14:34.328Z,15.77
2023-02-16T19:17:21.756Z,17.23
2023-02-16T19:20:11.747Z,20.15
2023-02-16T19:22:57.514Z,18.58
2023-02-16T19:25:43.676Z,15.80
2023-02-16T19:28:29.220Z,12.73
2023-02-16T19:31:21.519Z,12.93
2023-02-16T19:34:08.038Z,12.95
2023-02-16T19:36:53.650Z,11.48
2023-02-16T19:39:39.139Z,12.07
2023-02-16T19:42:26.046Z,14.30
2023-02-16T19:45:11.831Z,12.70
2023-02-16T19:47:57.385Z,13.13
2023-02-16T19:50:42.794Z,13.35
2023-02-16T19:53:29.408Z,13.35
2023-02-16T19:56:20.945Z,14.40
2023-02-16T19:59:06.974Z,13.82
2023-02-16T20:01:52.433Z,13.13
2023-02-16T20:04:38.180Z,12.75
2023-02-16T20:07:23.208Z,13.60
2023-02-16T20:10:09.434Z,14.77
2023-02-16T20:12:55.434Z,12.80
2023-02-16T20:15:41.051Z,12.65
2023-02-16T20:18:27.308Z,13.10
2023-02-16T20:21:15.495Z,13.55
2023-02-16T20:24:03.289Z,13.77
2023-02-16T20:26:52.053Z,12.65
2023-02-16T20:29:37.960Z,12.88
2023-02-16T20:32:24.966Z,13.38
2023-02-16T20:35:10.464Z,14.60
2023-02-16T20:37:56.225Z,15.52
2023-02-16T20:40:41.935Z,14.90
2023-02-16T20:43:27.793Z,15.65
2023-02-16T20:46:14.603Z,15.07
2023-02-16T20:49:00.335Z,13.98
2023-02-16T20:51:45.811Z,17.25
2023-02-16T20:54:31.679Z,14.25
2023-02-16T20:57:26.377Z,16.60
2023-02-16T21:00:20.130Z,18.95
2023-02-16T21:03:05.698Z,21.05
2023-02-16T21:05:51.353Z,21.80
2023-02-16T21:08:37.017Z,20.13
2023-02-16T21:11:23.109Z,20.83
2023-02-16T21:14:11.757Z,17.27
2023-02-16T21:16:57.804Z,20.92
2023-02-16T21:19:43.394Z,20.02
2023-02-16T21:22:29.403Z,29.20
2023-02-16T21:25:15.827Z,23.63
2023-02-16T21:28:01.201Z,17.70
2023-02-16T21:30:46.737Z,16.00
2023-02-16T21:33:32.268Z,19.35
2023-02-16T21:36:23.710Z,19.33
2023-02-16T21:39:09.281Z,22.33
2023-02-16T21:41:55.978Z,21.98
2023-02-16T21:44:44.482Z,20.23
2023-02-16T21:47:48.909Z,19.20
2023-02-16T21:50:40.415Z,19.55
2023-02-16T21:53:26.456Z,18.60
2023-02-16T21:56:25.089Z,16.98
2023-02-16T21:59:13.900Z,20.23
2023-02-16T22:01:59.603Z,18.33
2023-02-16T22:04:44.836Z,19.42
2023-02-16T22:07:30.383Z,17.73
2023-02-16T22:10:15.624Z,19.20
2023-02-16T22:13:01.049Z,21.63
2023-02-16T22:15:46.264Z,16.85
2023-02-16T22:18:32.420Z,19.08
2023-02-16T22:21:18.316Z,17.02
2023-02-16T22:24:04.271Z,25.27
2023-02-16T22:26:50.214Z,17.20
2023-02-16T22:29:35.585Z,19.85
2023-02-16T22:32:21.349Z,15.95
2023-02-16T22:35:07.382Z,15.93
2023-02-16T22:37:52.705Z,15.30
2023-02-16T22:40:38.268Z,14.40
2023-02-16T22:43:23.578Z,12.85
2023-02-16T22:46:13.810Z,13.93
2023-02-16T22:48:59.666Z,14.88
2023-02-16T22:51:45.161Z,12.77
2023-02-16T22:54:31.263Z,14.10
2023-02-16T22:57:17.651Z,13.38
2023-02-16T23:00:08.460Z,19.60
2023-02-16T23:02:53.833Z,12.95
2023-02-16T23:05:41.336Z,12.80
2023-02-16T23:08:26.786Z,14.48
2023-02-16T23:11:12.726Z,14.85
2023-02-16T23:13:58.428Z,13.30
2023-02-16T23:16:45.509Z,15.60
2023-02-16T23:19:32.500Z,13.50
2023-02-16T23:22:18.159Z,13.48
2023-02-16T23:25:22.340Z,14.88
2023-02-16T23:28:07.713Z,15.07
2023-02-16T23:30:56.551Z,13.95
2023-02-16T23:33:42.072Z,13.80
2023-02-16T23:36:27.790Z,14.23
2023-02-16T23:39:16.616Z,14.68
2023-02-16T23:42:02.845Z,13.68
2023-02-16T23:44:48.351Z,13.82
2023-02-16T23:47:34.047Z,14.50
2023-02-16T23:50:19.695Z,16.27
2023-02-16T23:53:05.478Z,15.15
2023-02-16T23:55:58.576Z,14.15
2023-02-16T23:58:45.215Z,14.02
